Terminal Aerodrome Forecast
Issued by NWS Jacksonville, FL

Home | Current Version | Previous Version | Text Only | Print | Product List | Glossary On
Versions: 1 2 3 4 5 6 7 8 9 10 11 12 13 14 15 16 17 18 19 20 21 22 23 24 25 26 27 28 29
000
FTUS42 KJAX 191100
TAFGNV
TAF
KGNV 191134Z 1912/2012 VRB04KT P6SM FEW020 OVC250
     FM191500 06004KT P6SM VCSH SCT025 BKN250
     FM191900 07006KT P6SM -SHRA VCTS OVC035CB
      TEMPO 1920/1924 3SM TSRA OVC025CB
     FM200400 05002KT P6SM VCSH BKN040 BKN250=

USA.gov is the U.S. government's official web portal to all federal, state and local government web resources and services.